createdAt,value
2018-07-27T00:00:35.690Z,99.90
2018-07-27T00:03:11.157Z,99.90
2018-07-27T00:05:39.210Z,99.90
2018-07-27T00:08:07.260Z,99.90
2018-07-27T00:10:41.518Z,99.90
2018-07-27T00:13:09.582Z,99.90
2018-07-27T00:15:41.599Z,99.90
2018-07-27T00:18:11.393Z,99.90
2018-07-27T00:20:39.484Z,99.90
2018-07-27T00:23:13.233Z,99.90
2018-07-27T00:25:41.310Z,99.90
2018-07-27T00:28:12.867Z,99.90
2018-07-27T00:30:42.270Z,99.90
2018-07-27T00:33:12.241Z,99.90
2018-07-27T00:35:41.896Z,99.90
2018-07-27T00:38:17.243Z,99.90
2018-07-27T00:40:45.317Z,99.90
2018-07-27T00:43:21.454Z,99.90
2018-07-27T00:45:51.358Z,99.90
2018-07-27T00:48:19.388Z,99.90
2018-07-27T00:50:53.416Z,99.90
2018-07-27T00:53:31.128Z,99.90
2018-07-27T00:55:59.158Z,99.90
2018-07-27T00:58:27.217Z,99.90
2018-07-27T01:00:55.304Z,99.90
2018-07-27T01:03:31.164Z,99.90
2018-07-27T01:05:59.242Z,99.90
2018-07-27T01:08:27.301Z,99.90
2018-07-27T01:10:55.371Z,99.90
2018-07-27T01:13:31.340Z,99.90
2018-07-27T01:16:01.337Z,99.90
2018-07-27T01:18:31.317Z,99.90
2018-07-27T01:21:03.103Z,99.90
2018-07-27T01:23:31.761Z,99.90
2018-07-27T01:25:59.801Z,99.90
2018-07-27T01:28:27.893Z,99.90
2018-07-27T01:31:02.442Z,99.90
2018-07-27T01:33:30.539Z,99.90
2018-07-27T01:35:58.638Z,99.90
2018-07-27T01:38:26.696Z,99.90
2018-07-27T01:40:54.767Z,99.90
2018-07-27T01:43:31.081Z,99.90
2018-07-27T01:48:27.259Z,99.90
2018-07-27T01:51:01.236Z,99.90
2018-07-27T01:53:29.276Z,99.90
2018-07-27T01:55:57.325Z,99.90
2018-07-27T01:58:25.434Z,99.90
2018-07-27T02:00:53.494Z,99.90
2018-07-27T02:03:31.559Z,99.90
2018-07-27T02:06:02.767Z,99.90
2018-07-27T02:08:31.520Z,99.90
2018-07-27T02:10:59.623Z,99.90
2018-07-27T02:13:33.397Z,99.90
2018-07-27T02:16:01.439Z,99.90
2018-07-27T02:18:29.517Z,99.90
2018-07-27T02:20:57.611Z,99.90
2018-07-27T02:23:25.663Z,99.90
2018-07-27T02:25:53.698Z,99.90
2018-07-27T02:28:21.769Z,99.90
2018-07-27T02:33:19.454Z,99.90
2018-07-27T02:38:21.879Z,99.90
2018-07-27T02:40:49.993Z,99.90
2018-07-27T02:43:21.597Z,99.90
2018-07-27T02:45:49.630Z,99.90
2018-07-27T02:48:17.699Z,99.90
2018-07-27T02:50:45.734Z,99.90
2018-07-27T02:53:20.947Z,99.90
2018-07-27T02:55:49.007Z,99.90
2018-07-27T03:00:44.946Z,99.90
2018-07-27T03:03:22.560Z,99.90
2018-07-27T03:05:50.666Z,99.90
2018-07-27T03:08:22.670Z,99.90
2018-07-27T03:10:52.682Z,99.90
2018-07-27T03:13:21.959Z,99.90
2018-07-27T03:15:50.121Z,99.90
2018-07-27T03:18:18.206Z,99.90
2018-07-27T03:20:52.590Z,99.90
2018-07-27T03:23:21.688Z,99.90
2018-07-27T03:25:53.335Z,99.90
2018-07-27T03:28:31.466Z,99.90
2018-07-27T03:31:02.653Z,99.90
2018-07-27T03:33:31.514Z,99.90
2018-07-27T03:36:01.367Z,99.90
2018-07-27T03:38:32.920Z,99.90
2018-07-27T03:41:01.659Z,99.90
2018-07-27T03:43:31.579Z,99.90
2018-07-27T03:46:03.278Z,99.90
2018-07-27T03:51:08.796Z,99.90
2018-07-27T03:53:36.860Z,99.90
2018-07-27T03:56:04.930Z,99.90
2018-07-27T03:58:40.874Z,99.90
2018-07-27T04:01:08.994Z,99.90
2018-07-27T04:03:49.503Z,99.90
2018-07-27T04:06:17.566Z,99.90
2018-07-27T04:08:45.679Z,99.90
2018-07-27T04:11:20.820Z,99.90
2018-07-27T04:13:48.902Z,99.90
2018-07-27T04:16:16.977Z,99.90
2018-07-27T04:18:45.107Z,99.90
2018-07-27T04:21:13.194Z,99.90
2018-07-27T04:23:41.328Z,99.90
2018-07-27T04:26:09.424Z,99.90
2018-07-27T04:28:37.529Z,99.90
2018-07-27T04:31:05.668Z,99.90
2018-07-27T04:33:41.744Z,99.90
2018-07-27T04:36:09.850Z,99.90
2018-07-27T04:38:37.926Z,99.90
2018-07-27T04:41:11.783Z,99.90
2018-07-27T04:43:42.916Z,99.90
2018-07-27T04:46:11.821Z,99.90
2018-07-27T04:48:41.418Z,99.90
2018-07-27T04:51:09.483Z,99.90
2018-07-27T04:53:43.212Z,99.90
2018-07-27T04:56:11.462Z,99.90
2018-07-27T04:58:43.004Z,99.90
2018-07-27T05:01:11.749Z,99.90
2018-07-27T05:03:39.834Z,99.90
2018-07-27T05:06:13.582Z,99.90
2018-07-27T05:08:56.625Z,99.90
2018-07-27T05:11:31.676Z,99.90
2018-07-27T05:13:59.802Z,99.90
2018-07-27T05:16:27.851Z,99.90
2018-07-27T05:18:55.947Z,99.90
2018-07-27T05:21:24.062Z,99.90
2018-07-27T05:23:52.209Z,99.90
2018-07-27T05:26:22.263Z,99.90
2018-07-27T05:28:51.525Z,99.90
2018-07-27T05:31:21.493Z,99.90
2018-07-27T05:33:49.589Z,99.90
2018-07-27T05:36:17.662Z,99.90
2018-07-27T05:38:45.791Z,99.90
2018-07-27T05:41:21.635Z,99.90
2018-07-27T05:43:49.759Z,99.90
2018-07-27T05:46:18.573Z,99.90
2018-07-27T05:48:47.131Z,99.90
2018-07-27T05:51:21.487Z,99.90
2018-07-27T05:53:49.593Z,99.90
2018-07-27T05:56:17.745Z,99.90
2018-07-27T05:58:51.944Z,99.90
2018-07-27T06:01:20.190Z,99.90
2018-07-27T06:03:48.368Z,99.90
2018-07-27T06:06:22.421Z,99.90
2018-07-27T06:08:50.622Z,99.90
2018-07-27T06:11:24.619Z,99.90
2018-07-27T06:13:52.737Z,99.90
2018-07-27T06:16:20.806Z,99.90
2018-07-27T06:18:53.532Z,99.90
2018-07-27T06:21:21.682Z,99.90
2018-07-27T06:26:17.979Z,99.90
2018-07-27T06:28:46.100Z,99.90
2018-07-27T06:33:49.172Z,99.90
2018-07-27T06:36:17.378Z,99.90
2018-07-27T06:38:45.532Z,99.90
2018-07-27T06:41:13.799Z,99.90
2018-07-27T06:43:41.976Z,99.90
2018-07-27T06:46:10.084Z,99.90
2018-07-27T06:48:38.146Z,99.90
2018-07-27T06:51:06.243Z,99.90
2018-07-27T06:53:34.346Z,99.90
2018-07-27T06:56:02.636Z,99.90
2018-07-27T06:58:30.794Z,99.90
2018-07-27T07:00:58.907Z,98.30
2018-07-27T07:03:32.661Z,96.20
2018-07-27T07:06:01.962Z,96.00
2018-07-27T07:08:30.073Z,95.20
2018-07-27T07:10:58.190Z,94.10
2018-07-27T07:13:26.279Z,92.50
2018-07-27T07:16:01.531Z,93.20
2018-07-27T07:18:29.698Z,90.30
2018-07-27T07:20:57.821Z,92.60
2018-07-27T07:23:31.623Z,92.40
2018-07-27T07:26:00.123Z,93.80
2018-07-27T07:28:27.977Z,89.80
2018-07-27T07:31:01.533Z,87.40
2018-07-27T07:33:32.760Z,87.80
2018-07-27T07:36:01.528Z,83.50
2018-07-27T07:38:31.572Z,80.20
2018-07-27T07:41:03.234Z,80.60
2018-07-27T07:43:31.273Z,80.20
2018-07-27T07:46:02.719Z,79.20
2018-07-27T07:48:32.281Z,79.70
2018-07-27T07:51:00.372Z,79.50
2018-07-27T07:53:28.489Z,78.90
2018-07-27T07:55:56.587Z,77.50
2018-07-27T07:58:24.687Z,76.70
2018-07-27T08:01:02.404Z,75.00
2018-07-27T08:03:30.466Z,73.50
2018-07-27T08:05:58.534Z,72.70
2018-07-27T08:08:26.679Z,72.90
2018-07-27T08:10:54.770Z,69.60
2018-07-27T08:13:22.813Z,68.00
2018-07-27T08:15:52.355Z,69.40
2018-07-27T08:18:20.503Z,71.00
2018-07-27T08:20:48.631Z,67.80
2018-07-27T08:23:16.850Z,65.20
2018-07-27T08:26:58.657Z,65.80
2018-07-27T08:29:42.015Z,63.80
2018-07-27T08:32:10.282Z,63.50
2018-07-27T08:34:38.540Z,61.00
2018-07-27T08:37:06.810Z,63.50
2018-07-27T08:39:42.699Z,64.30
2018-07-27T08:42:10.839Z,60.00
2018-07-27T08:44:41.010Z,61.30
2018-07-27T08:47:09.214Z,61.10
2018-07-27T08:49:37.259Z,61.30
2018-07-27T08:52:11.027Z,59.70
2018-07-27T08:54:43.029Z,60.60
2018-07-27T08:57:11.771Z,62.00
2018-07-27T08:59:43.311Z,62.70
2018-07-27T09:02:11.399Z,59.90
2018-07-27T09:04:42.625Z,59.10
2018-07-27T09:07:12.366Z,56.70
2018-07-27T09:09:42.066Z,58.80
2018-07-27T09:12:10.190Z,59.00
2018-07-27T09:14:41.613Z,63.90
2018-07-27T09:17:13.234Z,59.40
2018-07-27T09:19:41.303Z,59.80
2018-07-27T09:22:09.451Z,57.80
2018-07-27T09:24:37.726Z,59.80
2018-07-27T09:27:05.910Z,59.50
2018-07-27T09:29:41.058Z,55.80
2018-07-27T09:32:09.129Z,53.40
2018-07-27T09:34:37.285Z,53.00
2018-07-27T09:37:05.418Z,56.50
2018-07-27T09:39:33.573Z,52.90
2018-07-27T09:42:01.659Z,51.50
2018-07-27T09:44:29.781Z,53.10
2018-07-27T09:46:58.019Z,53.20
2018-07-27T09:49:26.136Z,50.20
2018-07-27T09:51:54.378Z,50.10
2018-07-27T09:54:32.745Z,50.90
2018-07-27T09:57:00.921Z,51.30
2018-07-27T09:59:29.052Z,51.70
2018-07-27T10:01:57.142Z,51.40
2018-07-27T10:04:31.619Z,53.30
2018-07-27T10:07:02.814Z,50.80
2018-07-27T10:09:31.583Z,50.80
2018-07-27T10:12:03.217Z,49.80
2018-07-27T10:14:31.935Z,48.20
2018-07-27T10:17:01.591Z,47.10
2018-07-27T10:19:29.706Z,48.10
2018-07-27T10:21:57.887Z,51.00
2018-07-27T10:24:31.619Z,50.90
2018-07-27T10:27:02.778Z,51.20
2018-07-27T10:29:30.924Z,50.20
2018-07-27T10:31:59.082Z,48.00
2018-07-27T10:34:28.336Z,46.90
2018-07-27T10:37:02.098Z,48.70
2018-07-27T10:39:30.243Z,51.50
2018-07-27T10:41:58.350Z,46.90
2018-07-27T10:44:26.548Z,45.20
2018-07-27T10:46:54.662Z,45.40
2018-07-27T10:49:31.038Z,45.10
2018-07-27T10:52:02.298Z,44.30
2018-07-27T10:54:32.138Z,45.10
2018-07-27T10:57:01.838Z,46.30
2018-07-27T10:59:29.988Z,47.10
2018-07-27T11:02:01.495Z,48.90
2018-07-27T11:04:33.125Z,48.00
2018-07-27T11:07:01.963Z,53.20
2018-07-27T11:09:30.196Z,51.90
2018-07-27T11:12:03.811Z,49.00
2018-07-27T11:14:31.910Z,44.70
2018-07-27T11:17:00.000Z,46.00
2018-07-27T11:19:28.089Z,47.50
2018-07-27T11:21:56.240Z,50.50
2018-07-27T11:24:31.650Z,52.00
2018-07-27T11:26:59.795Z,54.40
2018-07-27T11:29:28.681Z,49.40
2018-07-27T11:32:02.488Z,47.80
2018-07-27T11:34:30.621Z,45.60
2018-07-27T11:36:58.802Z,43.30
2018-07-27T11:39:32.685Z,44.90
2018-07-27T11:42:01.817Z,41.50
2018-07-27T11:44:31.418Z,39.80
2018-07-27T11:47:03.164Z,40.20
2018-07-27T11:49:32.058Z,42.00
2018-07-27T11:52:00.090Z,43.20
2018-07-27T11:54:31.402Z,41.80
2018-07-27T11:57:03.269Z,44.50
2018-07-27T11:59:41.388Z,49.20
2018-07-27T12:02:13.374Z,49.50
2018-07-27T12:04:51.750Z,46.10
2018-07-27T12:07:20.100Z,42.20
2018-07-27T12:09:48.235Z,41.00
2018-07-27T12:12:16.384Z,41.40
2018-07-27T12:14:51.387Z,40.00
2018-07-27T12:17:19.689Z,42.00
2018-07-27T12:19:53.726Z,45.00
2018-07-27T12:22:22.042Z,41.90
2018-07-27T12:24:50.452Z,41.00
2018-07-27T12:27:18.565Z,41.50
2018-07-27T12:29:46.695Z,38.60
2018-07-27T12:32:20.981Z,38.60
2018-07-27T12:34:49.096Z,37.70
2018-07-27T12:37:17.194Z,38.30
2018-07-27T12:39:45.296Z,40.50
2018-07-27T12:42:21.017Z,40.00
2018-07-27T12:44:53.050Z,39.70
2018-07-27T12:47:21.920Z,39.20
2018-07-27T12:49:51.440Z,39.40
2018-07-27T12:52:23.314Z,38.80
2018-07-27T12:55:01.403Z,39.50
2018-07-27T12:57:29.572Z,39.10
2018-07-27T13:00:03.582Z,38.40
2018-07-27T13:02:31.725Z,39.30
2018-07-27T13:05:03.472Z,41.00
2018-07-27T13:07:31.593Z,43.90
2018-07-27T13:10:05.270Z,37.90
2018-07-27T13:12:34.392Z,36.60
2018-07-27T13:15:12.784Z,37.70
2018-07-27T13:17:40.994Z,35.80
2018-07-27T13:20:09.154Z,35.10
2018-07-27T13:22:37.443Z,38.20
2018-07-27T13:25:11.813Z,38.10
2018-07-27T13:27:39.979Z,39.10
2018-07-27T13:30:11.552Z,36.30
2018-07-27T13:32:39.719Z,36.70
2018-07-27T13:37:42.144Z,36.20
2018-07-27T13:40:10.310Z,36.10
2018-07-27T13:45:06.478Z,37.00
2018-07-27T13:47:41.682Z,35.40
2018-07-27T13:50:09.905Z,34.30
2018-07-27T13:52:38.084Z,35.40
2018-07-27T13:55:12.631Z,36.40
2018-07-27T13:57:40.706Z,35.80
2018-07-27T14:00:08.886Z,36.20
2018-07-27T14:02:37.018Z,36.30
2018-07-27T14:05:11.627Z,37.50
2018-07-27T14:07:39.769Z,38.70
2018-07-27T14:12:41.935Z,38.50
2018-07-27T14:15:11.888Z,39.00
2018-07-27T14:17:40.007Z,37.90
2018-07-27T14:20:12.065Z,35.70
2018-07-27T14:22:41.728Z,34.80
2018-07-27T14:25:11.473Z,35.60
2018-07-27T14:27:43.116Z,36.50
2018-07-27T14:30:11.265Z,36.20
2018-07-27T14:32:39.406Z,36.20
2018-07-27T14:35:07.653Z,38.40
2018-07-27T14:37:35.726Z,37.60
2018-07-27T14:40:11.357Z,37.50
2018-07-27T14:42:39.658Z,38.50
2018-07-27T14:45:07.824Z,36.10
2018-07-27T14:47:42.308Z,37.20
2018-07-27T14:50:10.457Z,37.20
2018-07-27T14:52:42.224Z,36.90
2018-07-27T14:55:11.963Z,39.60
2018-07-27T14:57:40.109Z,38.10
2018-07-27T15:00:08.618Z,39.00
2018-07-27T15:02:42.421Z,39.70
2018-07-27T15:05:11.931Z,40.10
2018-07-27T15:07:40.033Z,39.80
2018-07-27T15:10:08.144Z,39.80
2018-07-27T15:12:36.237Z,39.60
2018-07-27T15:15:04.337Z,39.90
2018-07-27T15:17:42.294Z,41.80
2018-07-27T15:20:10.516Z,41.20
2018-07-27T15:22:38.803Z,40.10
2018-07-27T15:25:13.220Z,39.50
2018-07-27T15:27:41.344Z,38.70
2018-07-27T15:30:09.518Z,40.60
2018-07-27T15:32:37.797Z,41.20
2018-07-27T15:35:12.260Z,41.70
2018-07-27T15:37:40.366Z,43.10
2018-07-27T15:40:08.522Z,44.50
2018-07-27T15:42:36.642Z,46.20
2018-07-27T15:45:05.036Z,47.10
2018-07-27T15:47:41.464Z,48.30
2018-07-27T15:50:12.666Z,49.30
2018-07-27T15:52:40.801Z,49.70
2018-07-27T15:55:12.047Z,49.80
2018-07-27T15:57:41.749Z,50.80
2018-07-27T16:00:13.308Z,49.90
2018-07-27T16:02:41.474Z,50.50
2018-07-27T16:05:09.680Z,52.20
2018-07-27T16:07:37.876Z,53.60
2018-07-27T16:10:05.978Z,53.40
2018-07-27T16:12:34.252Z,54.00
2018-07-27T16:15:12.393Z,54.60
2018-07-27T16:17:40.612Z,53.80
2018-07-27T16:20:12.136Z,53.60
2018-07-27T16:22:40.225Z,54.10
2018-07-27T16:25:08.393Z,54.20
2018-07-27T16:27:36.362Z,53.80
2018-07-27T16:30:04.718Z,53.30
2018-07-27T16:32:42.488Z,53.40
2018-07-27T16:35:11.841Z,53.00
2018-07-27T16:37:39.918Z,54.10
2018-07-27T16:40:11.441Z,54.90
2018-07-27T16:42:43.145Z,54.80
2018-07-27T16:45:11.219Z,54.70
2018-07-27T16:47:39.246Z,54.70
2018-07-27T16:50:08.073Z,54.90
2018-07-27T16:52:36.208Z,54.10
2018-07-27T16:55:04.672Z,54.20
2018-07-27T16:57:32.869Z,54.40
2018-07-27T17:00:00.965Z,55.00
2018-07-27T17:02:32.304Z,55.80
2018-07-27T17:05:00.444Z,56.10
2018-07-27T17:07:31.642Z,56.30
2018-07-27T17:10:04.250Z,56.60
2018-07-27T17:12:42.696Z,56.00
2018-07-27T17:15:10.842Z,57.50
2018-07-27T17:20:07.945Z,57.50
2018-07-27T17:22:42.306Z,56.90
2018-07-27T17:25:10.525Z,56.50
2018-07-27T17:27:41.937Z,55.80
2018-07-27T17:30:11.884Z,56.60
2018-07-27T17:32:41.435Z,56.30
2018-07-27T17:35:09.652Z,56.50
2018-07-27T17:37:37.840Z,56.30
2018-07-27T17:40:12.210Z,56.60
2018-07-27T17:42:40.460Z,56.90
2018-07-27T17:45:09.092Z,57.30
2018-07-27T17:47:37.430Z,57.70
2018-07-27T17:50:05.498Z,58.50
2018-07-27T17:52:40.933Z,58.90
2018-07-27T17:55:09.052Z,59.30
2018-07-27T17:57:37.170Z,59.70
2018-07-27T18:00:06.072Z,59.60
2018-07-27T18:02:41.678Z,59.50
2018-07-27T18:07:41.458Z,61.40
2018-07-27T18:10:13.240Z,64.00
2018-07-27T18:12:41.435Z,65.60
2018-07-27T18:15:10.050Z,64.00
2018-07-27T18:17:38.187Z,63.20
2018-07-27T18:20:08.125Z,63.80
2018-07-27T18:22:36.260Z,65.50
2018-07-27T18:25:12.827Z,67.60
2018-07-27T18:30:21.856Z,76.00
2018-07-27T18:32:53.238Z,78.40
2018-07-27T18:35:21.819Z,80.50
2018-07-27T18:37:49.923Z,81.70
2018-07-27T18:40:18.061Z,82.60
2018-07-27T18:42:52.351Z,83.80
2018-07-27T18:45:21.493Z,82.90
2018-07-27T18:47:53.216Z,83.50
2018-07-27T18:50:21.394Z,84.70
2018-07-27T18:52:49.504Z,85.60
2018-07-27T18:55:17.697Z,86.00
2018-07-27T18:57:45.821Z,87.30
2018-07-27T19:00:13.898Z,88.70
2018-07-27T19:02:52.208Z,89.80
2018-07-27T19:05:20.437Z,90.70
2018-07-27T19:07:48.547Z,91.30
2018-07-27T19:10:16.664Z,92.00
2018-07-27T19:12:51.740Z,92.90
2018-07-27T19:15:19.885Z,93.40
2018-07-27T19:17:51.369Z,94.10
2018-07-27T19:20:19.490Z,94.60
2018-07-27T19:22:53.100Z,94.40
2018-07-27T19:25:22.089Z,96.00
2018-07-27T19:27:51.771Z,97.70
2018-07-27T19:30:21.777Z,99.40
2018-07-27T19:32:49.903Z,99.90
2018-07-27T19:35:23.751Z,99.90
2018-07-27T19:38:02.477Z,99.90
2018-07-27T19:40:30.533Z,99.90
2018-07-27T19:43:02.081Z,99.90
2018-07-27T19:45:31.965Z,99.90
2018-07-27T19:48:00.026Z,99.90
2018-07-27T19:50:28.109Z,99.90
2018-07-27T19:55:31.369Z,99.90
2018-07-27T19:57:59.787Z,99.90
2018-07-27T20:00:33.744Z,99.90
2018-07-27T20:03:11.498Z,99.90
2018-07-27T20:05:41.429Z,99.90
2018-07-27T20:08:13.242Z,99.90
2018-07-27T20:10:42.069Z,99.90
2018-07-27T20:13:11.307Z,99.90
2018-07-27T20:15:42.415Z,99.90
2018-07-27T20:18:12.157Z,99.90
2018-07-27T20:20:41.767Z,99.90
2018-07-27T20:23:09.968Z,99.90
2018-07-27T20:25:38.366Z,99.90
2018-07-27T20:28:12.568Z,99.90
2018-07-27T20:30:40.662Z,99.90
2018-07-27T20:33:12.478Z,99.90
2018-07-27T20:35:40.542Z,99.90
2018-07-27T20:40:36.441Z,99.90
2018-07-27T20:43:11.511Z,99.90
2018-07-27T20:48:07.959Z,99.90
2018-07-27T20:50:42.465Z,99.90
2018-07-27T20:53:10.574Z,99.90
2018-07-27T20:55:38.665Z,99.90
2018-07-27T20:58:06.817Z,99.90
2018-07-27T21:00:41.086Z,99.90
2018-07-27T21:03:09.174Z,99.90
2018-07-27T21:05:37.277Z,99.90
2018-07-27T21:08:10.962Z,99.90
2018-07-27T21:10:42.389Z,99.90
2018-07-27T21:13:11.342Z,99.90
2018-07-27T21:15:42.632Z,99.90
2018-07-27T21:18:12.282Z,99.90
2018-07-27T21:20:42.143Z,99.90
2018-07-27T21:23:10.224Z,99.90
2018-07-27T21:25:38.325Z,99.90
2018-07-27T21:30:41.077Z,99.90
2018-07-27T21:33:09.210Z,99.90
2018-07-27T21:35:43.399Z,99.90
2018-07-27T21:40:56.503Z,99.90
2018-07-27T21:43:24.567Z,99.90
2018-07-27T21:45:52.719Z,99.90
2018-07-27T21:48:20.685Z,99.90
2018-07-27T21:50:48.781Z,99.90
2018-07-27T21:53:16.956Z,99.90
2018-07-27T21:55:51.698Z,99.90
2018-07-27T21:58:19.782Z,99.90
2018-07-27T22:00:48.256Z,99.90
2018-07-27T22:03:22.663Z,99.90
2018-07-27T22:05:50.716Z,99.90
2018-07-27T22:08:18.989Z,99.90
2018-07-27T22:13:20.858Z,99.90
2018-07-27T22:15:48.851Z,99.90
2018-07-27T22:21:12.001Z,99.90
2018-07-27T22:23:40.194Z,99.90
2018-07-27T22:26:14.627Z,99.90
2018-07-27T22:28:42.788Z,99.90
2018-07-27T22:31:11.050Z,99.90
2018-07-27T22:33:39.156Z,99.90
2018-07-27T22:36:07.410Z,99.90
2018-07-27T22:38:35.710Z,99.90
2018-07-27T22:41:03.796Z,99.90
2018-07-27T22:43:31.851Z,99.90
2018-07-27T22:45:59.996Z,99.90
2018-07-27T22:48:28.079Z,99.90
2018-07-27T22:53:33.050Z,99.90
2018-07-27T22:56:01.120Z,99.90
2018-07-27T22:58:29.292Z,99.90
2018-07-27T23:00:57.539Z,99.90
2018-07-27T23:03:25.622Z,99.90
2018-07-27T23:13:49.915Z,99.90
2018-07-27T23:16:18.009Z,99.90
2018-07-27T23:18:46.110Z,99.90
2018-07-27T23:21:20.950Z,99.90
2018-07-27T23:23:49.023Z,99.90
2018-07-27T23:26:23.580Z,99.90
2018-07-27T23:29:01.850Z,99.90
2018-07-27T23:31:29.938Z,99.90
2018-07-27T23:33:58.047Z,99.90
2018-07-27T23:36:26.254Z,99.90
2018-07-27T23:38:54.353Z,99.90
2018-07-27T23:41:32.096Z,99.90
2018-07-27T23:44:00.151Z,99.90
2018-07-27T23:46:28.274Z,99.90
2018-07-27T23:49:02.283Z,99.90
2018-07-27T23:51:35.545Z,99.90
2018-07-27T23:54:11.314Z,99.90
2018-07-27T23:56:39.520Z,99.90
2018-07-27T23:59:07.728Z,99.90
